Time;durP1;ratioP1;P1;durP2;ratioP2;P2;SDS_P1;SDS_P2;PMS_P1;PMS_P2;Temp;Humidity;BMP_temperature;BMP_pressure;BME280_temperature;BME280_humidity;BME280_pressure;Samples;Min_cycle;Max_cycle;Signal;HPM_P1;HPM_P2
2024/01/23 00:02:10;;;;;;;;;;;;;;;5.01;49.62;101143.67;108019;1253;60268;-66
2024/01/23 00:04:38;;;;;;;36.00;16.30;;;;;;;4.99;49.83;101141.42;108032;1253;74079;-67
2024/01/23 00:07:05;;;;;;;32.90;16.30;;;;;;;5.03;49.44;101131.33;108171;1253;69096;-68
2024/01/23 00:09:33;;;;;;;41.10;19.40;;;;;;;4.94;49.77;101129.05;108060;1253;71354;-68
2024/01/23 00:12:02;;;;;;;38.00;15.10;;;;;;;5.26;49.14;101131.53;108163;1253;60422;-67
2024/01/23 00:14:30;;;;;;;35.50;16.40;;;;;;;4.85;49.94;101129.55;108104;1254;60475;-68
2024/01/23 00:16:57;;;;;;;32.60;14.90;;;;;;;4.92;49.93;101128.86;108079;1253;72965;-67
2024/01/23 00:19:24;;;;;;;31.30;15.90;;;;;;;5.06;49.38;101125.77;108060;1254;70332;-67
2024/01/23 00:21:52;;;;;;;41.00;18.30;;;;;;;4.79;50.13;101117.35;108047;1254;72440;-68
2024/01/23 00:24:20;;;;;;;39.00;17.00;;;;;;;4.78;50.13;101121.88;108105;1254;60948;-67
2024/01/23 00:26:47;;;;;;;41.60;20.20;;;;;;;4.53;50.93;101115.19;108096;1252;60213;-68
2024/01/23 00:29:15;;;;;;;30.30;13.00;;;;;;;4.92;50.08;101107.64;108096;1257;73817;-68
2024/01/23 00:31:43;;;;;;;43.30;18.40;;;;;;;4.86;50.12;101104.32;108112;1251;69955;-68
2024/01/23 00:34:11;;;;;;;40.50;20.60;;;;;;;4.79;50.33;101091.77;108222;1251;71671;-68
2024/01/23 00:36:38;;;;;;;39.60;18.90;;;;;;;4.91;50.20;101089.54;108195;1251;61706;-67
2024/01/23 00:39:06;;;;;;;44.60;19.70;;;;;;;4.67;50.76;101080.97;108199;1251;60338;-67
2024/01/23 00:41:34;;;;;;;40.10;20.20;;;;;;;4.93;50.00;101073.02;108096;1251;72627;-68
2024/01/23 00:44:02;;;;;;;33.80;14.90;;;;;;;5.01;49.83;101068.66;108220;1251;68835;-67
2024/01/23 00:46:29;;;;;;;40.60;18.60;;;;;;;4.79;50.54;101063.95;108164;1251;71466;-67
2024/01/23 00:48:56;;;;;;;35.10;18.00;;;;;;;4.87;50.36;101059.43;108183;1254;61698;-67
2024/01/23 00:51:24;;;;;;;31.20;11.80;;;;;;;5.20;49.89;101056.33;108190;1251;60008;-68
2024/01/23 00:53:51;;;;;;;33.10;14.10;;;;;;;4.78;50.48;101056.64;108181;1251;72606;-67
2024/01/23 00:56:19;;;;;;;41.40;18.40;;;;;;;4.84;50.48;101055.59;108178;1251;70385;-68
2024/01/23 00:58:47;;;;;;;35.00;15.70;;;;;;;5.16;49.98;101054.76;108171;1251;71062;-67
2024/01/23 01:01:14;;;;;;;44.30;21.00;;;;;;;4.89;50.42;101050.56;108209;1251;61641;-66
2024/01/23 01:03:42;;;;;;;38.50;15.10;;;;;;;4.76;50.72;101050.71;108212;1251;60310;-68
2024/01/23 01:06:09;;;;;;;35.10;16.80;;;;;;;4.87;50.57;101051.42;108176;1251;73193;-67
2024/01/23 01:08:37;;;;;;;32.80;15.60;;;;;;;4.76;50.84;101048.80;108243;1251;69034;-67
2024/01/23 01:11:06;;;;;;;40.40;19.50;;;;;;;4.86;50.70;101040.45;108228;1253;72699;-67
2024/01/23 01:13:34;;;;;;;26.30;9.60;;;;;;;4.99;50.55;101033.16;108154;1251;60789;-67
2024/01/23 01:16:03;;;;;;;31.10;12.20;;;;;;;4.53;51.55;101033.45;108098;1251;62264;-67
2024/01/23 01:18:31;;;;;;;47.30;20.30;;;;;;;4.87;51.15;101035.23;108238;1251;73813;-67
2024/01/23 01:21:00;;;;;;;40.80;16.20;;;;;;;5.01;50.60;101038.73;108199;1256;69004;-67
2024/01/23 01:23:28;;;;;;;30.80;15.40;;;;;;;4.92;50.96;101037.34;108185;1253;71457;-67
2024/01/23 01:25:55;;;;;;;25.10;13.90;;;;;;;4.67;51.52;101036.45;108238;1253;61507;-67
2024/01/23 01:28:23;;;;;;;44.60;20.40;;;;;;;4.63;51.71;101032.79;108116;1258;60300;-67
2024/01/23 01:30:50;;;;;;;41.30;19.30;;;;;;;5.10;50.86;101031.60;108201;1251;72651;-67
2024/01/23 01:33:19;;;;;;;34.30;16.70;;;;;;;5.11;50.70;101025.84;108115;1253;68879;-67
2024/01/23 01:35:47;;;;;;;38.20;15.40;;;;;;;4.92;51.10;101015.25;108104;1254;72670;-67
2024/01/23 01:38:14;;;;;;;36.00;18.20;;;;;;;4.82;51.27;101008.96;108096;1254;62262;-67
2024/01/23 01:40:42;;;;;;;32.50;14.80;;;;;;;4.81;51.60;101007.23;108130;1254;60318;-68
2024/01/23 01:43:25;;;;;;;29.70;13.40;;;;;;;4.96;51.14;100995.22;108086;1254;73415;-67
2024/01/23 01:46:12;;;;;;;33.80;15.80;;;;;;;5.00;51.12;100992.79;108082;1254;69055;-68
2024/01/23 01:48:40;;;;;;;34.50;17.70;;;;;;;5.35;50.44;100985.44;108031;1254;72709;-67
2024/01/23 01:51:08;;;;;;;31.20;14.20;;;;;;;5.32;50.39;100984.75;108042;1253;61685;-67
2024/01/23 01:53:35;;;;;;;27.80;12.90;;;;;;;5.26;50.61;100981.27;107974;1252;60297;-67
2024/01/23 01:56:03;;;;;;;35.50;17.80;;;;;;;5.02;50.97;100978.52;108041;1252;72985;-67
2024/01/23 01:58:31;;;;;;;42.50;19.30;;;;;;;5.04;50.90;100976.25;108098;1254;68254;-68
2024/01/23 02:00:59;;;;;;;36.70;17.00;;;;;;;5.25;50.56;100971.35;108100;1254;72049;-68
2024/01/23 02:03:30;;;;;;;39.40;18.60;;;;;;;5.43;50.30;100974.63;108054;1254;60368;-68
2024/01/23 02:05:58;;;;;;;25.20;14.20;;;;;;;5.12;50.71;100975.02;108065;1254;60218;-68
2024/01/23 02:08:27;;;;;;;41.20;18.80;;;;;;;5.19;50.93;100976.95;108142;1254;72577;-67
2024/01/23 02:10:54;;;;;;;35.50;16.60;;;;;;;5.22;50.56;100973.27;108003;1253;70109;-67
2024/01/23 02:13:26;;;;;;;41.90;17.60;;;;;;;5.04;50.94;100957.45;108067;1257;71701;-68
2024/01/23 02:15:53;;;;;;;24.40;11.80;;;;;;;5.14;50.66;100961.80;108024;1254;61732;-66
2024/01/23 02:18:21;;;;;;;43.60;16.60;;;;;;;4.87;51.44;100954.51;108085;1254;60039;-68
2024/01/23 02:20:49;;;;;;;35.70;18.10;;;;;;;5.08;50.92;100959.19;108039;1254;72116;-67
2024/01/23 02:23:17;;;;;;;31.20;12.80;;;;;;;5.31;50.49;100954.96;108044;1254;68987;-67
2024/01/23 02:25:44;;;;;;;35.70;12.70;;;;;;;4.77;51.64;100952.95;108137;1254;72780;-66
2024/01/23 02:28:15;;;;;;;34.40;17.10;;;;;;;5.19;50.82;100951.87;108064;1254;62840;-67
2024/01/23 02:30:43;;;;;;;35.00;18.20;;;;;;;5.05;51.04;100950.66;108186;1253;60409;-67
2024/01/23 02:33:10;;;;;;;35.40;18.80;;;;;;;4.99;51.08;100939.71;108184;1251;73840;-67
2024/01/23 02:35:38;;;;;;;32.90;15.00;;;;;;;5.12;50.80;100939.87;108194;1251;70101;-67
2024/01/23 02:38:06;;;;;;;30.60;15.60;;;;;;;5.04;51.04;100933.95;108202;1251;72581;-68
2024/01/23 02:40:33;;;;;;;36.00;16.70;;;;;;;5.13;50.90;100940.21;108189;1256;60342;-66
2024/01/23 02:43:01;;;;;;;30.80;14.40;;;;;;;5.21;50.80;100929.23;108175;1251;59963;-67
2024/01/23 02:45:28;;;;;;;31.50;16.10;;;;;;;5.06;51.02;100929.95;108075;1251;72580;-67
2024/01/23 02:47:56;;;;;;;28.20;11.80;;;;;;;5.17;50.71;100930.95;108151;1251;69966;-67
2024/01/23 02:50:23;;;;;;;27.40;13.30;;;;;;;5.04;51.25;100931.52;108177;1256;71458;-67
2024/01/23 02:52:51;;;;;;;31.80;14.90;;;;;;;5.07;50.86;100929.59;108192;1251;60636;-67
2024/01/23 02:55:18;;;;;;;30.90;17.20;;;;;;;5.03;51.14;100929.07;108146;1251;94565;-67
2024/01/23 02:58:26;;;;;;;28.40;14.90;;;;;;;3.72;54.97;100929.29;104874;1292;601039;-68
2024/01/23 03:00:53;;;;;;;35.50;16.60;;;;;;;4.00;53.64;100935.64;107303;1269;60390;-67
2024/01/23 03:03:20;;;;;;;34.10;15.80;;;;;;;4.40;52.90;100924.77;107310;1264;59246;-67
2024/01/23 03:05:48;;;;;;;20.00;10.80;;;;;;;4.80;52.12;100922.31;107330;1263;71036;-67
2024/01/23 03:08:16;;;;;;;33.80;16.60;;;;;;;4.55;52.38;100920.59;107333;1264;69219;-67
2024/01/23 03:10:43;;;;;;;33.70;10.30;;;;;;;4.81;52.16;100913.80;107315;1264;72489;-69
2024/01/23 03:13:11;;;;;;;19.60;10.50;;;;;;;4.44;52.70;100913.10;107293;1262;112620;-68
2024/01/23 03:15:38;;;;;;;31.10;13.40;;;;;;;4.64;52.26;100909.11;107395;1262;59018;-67
2024/01/23 03:18:05;;;;;;;31.00;16.10;;;;;;;4.51;52.55;100906.50;107407;1264;72244;-68
2024/01/23 03:20:34;;;;;;;28.60;15.60;;;;;;;4.35;53.08;100901.46;107377;1264;70331;-67
2024/01/23 03:23:02;;;;;;;19.70;10.40;;;;;;;4.62;52.56;100894.84;107340;1263;72696;-67
2024/01/23 03:25:29;;;;;;;23.00;10.50;;;;;;;4.34;53.02;100888.58;107346;1262;61721;-67
2024/01/23 03:27:58;;;;;;;30.00;14.20;;;;;;;4.75;52.29;100888.58;107385;1264;60114;-68
2024/01/23 03:30:29;;;;;;;27.60;13.80;;;;;;;4.90;51.60;100887.52;107571;1260;73026;-67
2024/01/23 03:32:56;;;;;;;28.90;15.60;;;;;;;5.17;51.18;100881.72;107534;1260;69542;-67
2024/01/23 03:35:27;;;;;;;28.70;14.30;;;;;;;4.92;51.47;100878.09;107521;1259;71738;-67
2024/01/23 03:37:55;;;;;;;32.30;16.40;;;;;;;4.77;51.70;100877.96;107499;1266;61642;-67
2024/01/23 03:40:22;;;;;;;25.90;13.10;;;;;;;4.77;51.84;100875.52;107541;1259;59683;-66
2024/01/23 03:42:50;;;;;;;23.00;12.00;;;;;;;4.91;51.72;100886.98;107540;1260;72127;-68
2024/01/23 03:45:17;;;;;;;26.10;10.90;;;;;;;4.82;51.76;100880.73;107484;1259;70286;-67
2024/01/23 03:47:45;;;;;;;23.90;11.40;;;;;;;5.03;51.50;100882.79;107471;1262;72742;-68
2024/01/23 03:50:12;;;;;;;25.10;13.80;;;;;;;4.74;51.89;100890.84;107504;1264;60393;-68
2024/01/23 03:52:40;;;;;;;19.10;9.00;;;;;;;5.09;51.39;100894.44;107470;1259;59554;-68
2024/01/23 03:55:07;;;;;;;24.80;12.20;;;;;;;4.89;51.65;100897.08;107527;1261;71765;-67
2024/01/23 03:57:35;;;;;;;20.70;10.60;;;;;;;5.05;51.41;100894.27;107625;1261;70538;-67
2024/01/23 04:00:04;;;;;;;22.50;10.30;;;;;;;5.26;50.90;100896.84;107533;1259;71415;-69
2024/01/23 04:02:38;;;;;;;30.70;15.60;;;;;;;5.14;51.03;100901.74;107578;1260;61722;-68
2024/01/23 04:05:07;;;;;;;30.80;14.90;;;;;;;5.20;50.96;100902.94;107552;1260;59715;-68
2024/01/23 04:07:34;;;;;;;30.80;15.60;;;;;;;5.08;51.25;100889.91;107520;1260;73031;-68
2024/01/23 04:10:05;;;;;;;34.30;15.00;;;;;;;4.87;51.52;100897.77;107497;1265;69093;-68
2024/01/23 04:12:32;;;;;;;;;;;;;;;5.04;51.49;100891.66;107515;1261;72741;-68
2024/01/23 04:15:00;;;;;;;22.00;11.80;;;;;;;4.87;51.50;100901.79;107537;1264;60840;-68
2024/01/23 04:17:28;;;;;;;30.60;15.70;;;;;;;5.01;51.35;100898.80;107550;1260;60008;-69
2024/01/23 04:19:56;;;;;;;34.40;16.60;;;;;;;5.35;50.78;100900.98;107541;1260;71791;-68
2024/01/23 04:22:24;;;;;;;27.40;13.90;;;;;;;5.32;50.47;100894.73;107502;1261;67772;-69
2024/01/23 04:24:51;;;;;;;20.10;9.90;;;;;;;5.38;50.48;100894.52;107939;1260;72479;-68
2024/01/23 04:27:19;;;;;;;33.20;13.80;;;;;;;5.21;51.02;100894.75;107925;1254;60928;-66
2024/01/23 04:29:46;;;;;;;22.70;10.00;;;;;;;5.58;49.95;100892.54;107941;1253;60940;-67
2024/01/23 04:32:14;;;;;;;26.80;12.90;;;;;;;5.29;50.41;100890.90;107915;1254;72320;-67
2024/01/23 04:34:41;;;;;;;23.40;12.80;;;;;;;5.65;49.78;100893.03;107896;1254;69637;-67
2024/01/23 04:37:09;;;;;;;29.50;15.30;;;;;;;5.32;50.37;100886.71;107898;1254;70555;-66
2024/01/23 04:39:36;;;;;;;23.80;11.60;;;;;;;5.60;49.82;100884.86;107947;1254;59740;-67
2024/01/23 04:42:04;;;;;;;22.70;11.90;;;;;;;5.36;50.30;100883.91;107899;1254;60270;-63
2024/01/23 04:44:31;;;;;;;20.90;10.50;;;;;;;5.48;49.93;100881.95;107944;1254;72985;-67
2024/01/23 04:46:59;;;;;;;30.90;16.40;;;;;;;5.59;49.92;100878.42;107897;1254;70120;-67
2024/01/23 04:49:26;;;;;;;23.30;11.80;;;;;;;5.60;49.66;100883.81;107905;1254;72661;-67
2024/01/23 04:51:54;;;;;;;28.10;12.90;;;;;;;5.25;50.60;100887.79;107887;1255;59625;-67
2024/01/23 04:54:21;;;;;;;24.70;13.50;;;;;;;5.31;50.62;100883.77;107919;1254;59960;-67
2024/01/23 04:56:50;;;;;;;30.00;13.30;;;;;;;5.32;50.55;100889.32;107942;1254;71777;-67
2024/01/23 04:59:18;;;;;;;25.20;11.70;;;;;;;5.51;50.24;100892.38;107939;1254;70172;-69
2024/01/23 05:01:45;;;;;;;25.80;12.50;;;;;;;5.26;50.64;100885.69;107869;1254;75353;-67
2024/01/23 05:04:13;;;;;;;26.10;13.60;;;;;;;5.46;50.45;100884.04;107956;1254;60848;-67
2024/01/23 05:06:41;;;;;;;23.90;12.90;;;;;;;5.32;50.53;100883.92;107953;1254;59551;-67
2024/01/23 05:09:08;;;;;;;18.70;10.10;;;;;;;5.31;50.39;100885.50;107896;1254;71982;-67
2024/01/23 05:11:36;;;;;;;27.30;14.70;;;;;;;5.35;50.52;100872.60;107956;1260;70116;-67
2024/01/23 05:14:03;;;;;;;20.70;8.20;;;;;;;5.15;50.81;100877.02;107981;1254;72686;-67
2024/01/23 05:16:31;;;;;;;25.60;14.00;;;;;;;5.04;51.24;100880.52;107802;1262;59555;-67
2024/01/23 05:18:58;;;;;;;34.40;17.70;;;;;;;5.13;51.22;100880.85;107903;1260;59503;-67
2024/01/23 05:21:26;;;;;;;27.50;14.80;;;;;;;5.38;50.44;100870.84;107801;1254;71761;-67
2024/01/23 05:23:54;;;;;;;26.40;13.60;;;;;;;5.64;49.96;100871.25;107888;1254;70706;-67
2024/01/23 05:26:21;;;;;;;26.70;13.60;;;;;;;5.54;50.28;100875.48;107941;1254;71128;-67
2024/01/23 05:28:49;;;;;;;36.90;15.10;;;;;;;5.51;50.08;100867.13;107915;1257;60824;-67
2024/01/23 05:31:16;;;;;;;22.30;10.80;;;;;;;5.70;49.71;100870.89;107868;1254;59988;-67
2024/01/23 05:33:44;;;;;;;31.80;15.20;;;;;;;5.35;50.65;100857.64;107971;1260;73067;-67
2024/01/23 05:36:14;;;;;;;34.90;16.80;;;;;;;5.72;49.67;100864.24;108004;1255;69280;-67
2024/01/23 05:38:42;;;;;;;25.20;12.20;;;;;;;5.70;49.82;100861.29;107908;1254;71242;-67
2024/01/23 05:41:10;;;;;;;29.60;11.90;;;;;;;5.71;49.75;100866.87;107974;1255;59621;-67
2024/01/23 05:43:37;;;;;;;31.00;15.80;;;;;;;5.47;50.23;100861.75;108123;1254;60097;-67
2024/01/23 05:46:05;;;;;;;27.40;14.60;;;;;;;5.64;50.07;100864.27;107916;1254;72940;-66
2024/01/23 05:48:32;;;;;;;25.50;12.00;;;;;;;5.80;49.59;100860.19;107885;1254;72385;-66
2024/01/23 05:51:00;;;;;;;31.60;14.50;;;;;;;5.64;49.79;100864.46;107923;1254;72699;-67
2024/01/23 05:53:28;;;;;;;30.40;15.20;;;;;;;5.51;50.11;100862.09;107936;1254;59825;-67
2024/01/23 05:55:55;;;;;;;22.10;11.60;;;;;;;5.78;49.79;100858.65;107918;1260;59531;-67
2024/01/23 05:58:23;;;;;;;22.50;12.00;;;;;;;5.60;50.02;100861.70;107917;1254;73398;-69
2024/01/23 06:00:50;;;;;;;33.10;17.40;;;;;;;5.64;49.95;100857.66;107969;1254;70300;-68
2024/01/23 06:03:18;;;;;;;30.70;16.00;;;;;;;5.81;49.70;100850.42;107931;1257;75025;-68
2024/01/23 06:05:45;;;;;;;31.10;14.60;;;;;;;5.68;50.08;100856.25;107932;1254;59651;-68
2024/01/23 06:08:13;;;;;;;32.60;15.80;;;;;;;5.44;50.64;100849.23;107927;1260;59703;-68
2024/01/23 06:10:40;;;;;;;24.20;12.10;;;;;;;5.40;50.84;100850.12;107890;1255;72988;-67
2024/01/23 06:13:08;;;;;;;22.20;11.10;;;;;;;5.54;50.56;100848.14;107904;1254;69317;-67
2024/01/23 06:15:36;;;;;;;30.10;17.40;;;;;;;5.47;50.74;100853.39;107910;1260;71629;-67
2024/01/23 06:18:07;;;;;;;30.70;14.70;;;;;;;5.67;50.25;100846.86;107918;1254;59789;-67
2024/01/23 06:20:35;;;;;;;23.20;12.30;;;;;;;5.65;50.37;100851.73;107961;1255;59561;-67
2024/01/23 06:23:03;;;;;;;32.50;17.50;;;;;;;5.63;50.65;100838.34;107917;1254;73049;-67
2024/01/23 06:25:30;;;;;;;21.30;10.30;;;;;;;5.69;50.26;100833.95;107933;1262;70512;-67
2024/01/23 06:27:58;;;;;;;26.20;13.60;;;;;;;5.35;51.09;100833.24;107897;1260;72702;-67
2024/01/23 06:30:25;;;;;;;33.00;15.40;;;;;;;5.80;50.43;100830.39;107936;1254;60233;-67
2024/01/23 06:32:53;;;;;;;29.40;11.30;;;;;;;5.92;50.06;100830.16;107979;1254;60017;-67
2024/01/23 06:35:21;;;;;;;31.60;16.30;;;;;;;5.63;50.67;100837.98;107973;1254;71824;-67
2024/01/23 06:37:48;;;;;;;30.80;13.20;;;;;;;6.05;49.85;100836.71;107875;1254;70287;-67
2024/01/23 06:40:16;;;;;;;21.10;9.70;;;;;;;6.08;49.83;100833.72;107869;1257;71623;-67
2024/01/23 06:42:44;;;;;;;25.90;12.40;;;;;;;5.96;49.82;100844.09;107925;1254;60887;-67
2024/01/23 06:45:12;;;;;;;30.90;17.20;;;;;;;5.95;50.19;100845.67;107902;1255;59361;-67
2024/01/23 06:47:40;;;;;;;27.70;14.30;;;;;;;6.13;49.71;100839.95;107887;1254;72253;-67
2024/01/23 06:50:08;;;;;;;21.80;11.30;;;;;;;6.09;49.90;100832.51;108017;1254;70325;-67
2024/01/23 06:52:35;;;;;;;35.40;17.30;;;;;;;6.05;49.82;100836.18;107873;1260;70948;-67
2024/01/23 06:55:04;;;;;;;32.80;15.00;;;;;;;6.26;49.60;100838.48;107875;1254;59997;-67
2024/01/23 06:57:31;;;;;;;26.30;13.30;;;;;;;5.97;50.02;100840.23;107978;1255;59606;-68
2024/01/23 07:00:03;;;;;;;27.50;13.30;;;;;;;6.11;49.93;100835.78;107891;1254;71568;-67
2024/01/23 07:02:31;;;;;;;18.40;9.70;;;;;;;6.15;49.77;100836.64;107916;1254;68724;-68
2024/01/23 07:04:58;;;;;;;31.90;18.00;;;;;;;6.07;49.85;100837.73;107902;1257;71198;-68
2024/01/23 07:07:26;;;;;;;38.20;17.10;;;;;;;6.51;49.14;100839.48;107894;1260;60904;-68
2024/01/23 07:09:53;;;;;;;36.00;18.80;;;;;;;6.63;48.93;100839.90;107870;1254;60313;-68
2024/01/23 07:12:20;;;;;;;36.10;15.10;;;;;;;6.58;48.89;100840.11;107920;1254;72919;-68
2024/01/23 07:14:48;;;;;;;50.60;20.10;;;;;;;6.30;49.46;100839.13;107907;1254;69317;-68
2024/01/23 07:17:16;;;;;;;38.80;16.60;;;;;;;6.08;49.95;100844.88;107979;1260;72658;-68
2024/01/23 07:19:44;;;;;;;32.00;14.70;;;;;;;6.58;49.14;100831.05;107976;1254;60935;-68
2024/01/23 07:22:12;;;;;;;36.30;13.60;;;;;;;6.39;49.35;100842.38;107930;1254;61023;-68
2024/01/23 07:24:39;;;;;;;35.80;15.60;;;;;;;6.02;50.14;100838.63;107912;1255;73791;-68
2024/01/23 07:27:09;;;;;;;30.60;11.80;;;;;;;6.21;49.89;100835.88;107944;1255;68904;-68
2024/01/23 07:29:44;;;;;;;34.80;17.80;;;;;;;6.45;49.67;100837.09;107919;1260;72594;-66
2024/01/23 07:32:11;;;;;;;14.10;7.50;;;;;;;6.43;49.30;100840.94;107917;1254;60851;-66
2024/01/23 07:34:39;;;;;;;29.30;12.20;;;;;;;6.19;50.09;100840.44;107888;1255;60500;-66
2024/01/23 07:37:06;;;;;;;27.00;14.00;;;;;;;6.14;50.08;100832.45;107936;1255;73123;-67
2024/01/23 07:39:34;;;;;;;30.40;11.50;;;;;;;6.01;50.30;100834.12;107916;1254;70343;-67
2024/01/23 07:42:02;;;;;;;26.70;14.00;;;;;;;6.20;50.14;100833.81;107884;1257;72705;-67
2024/01/23 07:44:32;;;;;;;34.50;17.40;;;;;;;6.69;49.31;100836.52;108002;1254;60897;-67
2024/01/23 07:47:00;;;;;;;31.80;18.20;;;;;;;6.89;48.50;100841.57;107953;1254;60311;-67
2024/01/23 07:49:27;;;;;;;26.40;13.80;;;;;;;6.69;48.62;100857.10;107960;1254;73855;-66
2024/01/23 07:51:55;;;;;;;24.70;11.10;;;;;;;6.86;48.44;100847.52;107955;1254;70156;-68
2024/01/23 07:54:22;;;;;;;19.90;9.10;;;;;;;6.61;48.88;100847.40;107934;1254;72721;-67
2024/01/23 07:56:53;;;;;;;34.00;17.70;;;;;;;6.03;50.17;100851.54;107940;1257;60453;-68
2024/01/23 07:59:20;;;;;;;23.10;11.00;;;;;;;6.69;48.86;100849.42;107893;1260;60210;-67
2024/01/23 08:01:48;;;;;;;19.80;10.60;;;;;;;6.20;49.75;100843.58;107932;1254;73830;-67
2024/01/23 08:04:15;;;;;;;33.90;15.20;;;;;;;6.27;49.55;100849.27;107944;1254;70345;-67
2024/01/23 08:06:43;;;;;;;24.40;13.00;;;;;;;6.66;48.84;100846.84;108042;1259;73621;-67
2024/01/23 08:09:11;;;;;;;29.60;13.40;;;;;;;6.37;49.22;100855.64;107936;1254;60370;-67
2024/01/23 08:11:38;;;;;;;27.80;14.30;;;;;;;6.36;49.51;100854.79;108057;1254;60648;-68
2024/01/23 08:14:06;;;;;;;29.70;12.90;;;;;;;6.37;49.29;100851.81;107924;1254;74330;-68
2024/01/23 08:16:34;;;;;;;30.40;16.50;;;;;;;6.44;49.35;100850.35;107916;1262;69978;-68
2024/01/23 08:19:02;;;;;;;34.90;17.20;;;;;;;6.63;48.87;100845.65;107986;1254;74895;-67
2024/01/23 08:21:30;;;;;;;19.80;9.70;;;;;;;6.73;48.62;100843.29;107904;1260;61015;-67
2024/01/23 08:23:58;;;;;;;26.50;15.00;;;;;;;6.55;48.87;100849.90;107810;1255;62226;-67
2024/01/23 08:26:25;;;;;;;17.70;9.60;;;;;;;6.64;48.62;100845.47;107945;1255;75144;-65
2024/01/23 08:28:59;;;;;;;25.20;12.90;;;;;;;6.27;49.57;100850.67;107936;1260;69273;-68
2024/01/23 08:31:27;;;;;;;26.20;14.20;;;;;;;6.39;49.27;100849.18;107960;1260;73053;-67
2024/01/23 08:33:55;;;;;;;31.00;14.30;;;;;;;6.37;49.40;100849.38;108014;1255;61139;-67
2024/01/23 08:36:23;;;;;;;22.00;10.20;;;;;;;6.67;48.65;100848.41;107980;1254;60184;-67
2024/01/23 08:38:50;;;;;;;20.90;10.20;;;;;;;6.43;49.30;100842.16;107975;1260;73984;-67
2024/01/23 08:41:18;;;;;;;28.60;12.10;;;;;;;6.53;49.01;100842.43;108018;1254;71428;-67
2024/01/23 08:43:46;;;;;;;26.80;13.40;;;;;;;6.73;48.59;100843.45;107937;1254;72466;-67
2024/01/23 08:46:16;;;;;;;34.00;16.90;;;;;;;6.77;48.59;100837.32;107895;1254;60335;-67
2024/01/23 08:48:44;;;;;;;26.50;14.30;;;;;;;6.45;49.20;100830.98;107972;1254;60357;-67
2024/01/23 08:51:11;;;;;;;26.90;13.10;;;;;;;6.59;49.05;100834.52;108016;1256;75076;-67
2024/01/23 08:53:40;;;;;;;25.70;11.00;;;;;;;6.75;48.61;100830.71;107963;1260;70646;-69
2024/01/23 08:56:08;;;;;;;29.30;11.60;;;;;;;6.58;48.93;100838.20;107940;1257;73358;-68
2024/01/23 08:58:35;;;;;;;23.20;11.70;;;;;;;6.60;49.09;100837.14;107908;1255;60290;-67
2024/01/23 09:01:03;;;;;;;23.00;11.70;;;;;;;6.44;49.36;100840.08;108015;1254;60180;-67
2024/01/23 09:03:31;;;;;;;20.00;11.90;;;;;;;6.70;48.86;100836.51;107928;1254;73669;-67
2024/01/23 09:05:58;;;;;;;26.20;12.30;;;;;;;6.91;48.61;100834.55;108155;1254;70492;-67
2024/01/23 09:08:26;;;;;;;21.10;11.60;;;;;;;6.86;48.59;100835.11;108130;1254;73447;-67
2024/01/23 09:10:54;;;;;;;33.00;16.00;;;;;;;6.97;48.60;100833.26;108225;1254;60930;-66
2024/01/23 09:13:21;;;;;;;24.80;11.50;;;;;;;7.12;48.09;100835.20;108186;1254;60297;-68
2024/01/23 09:15:49;;;;;;;25.10;12.60;;;;;;;7.06;48.28;100830.02;108078;1254;72551;-68
2024/01/23 09:18:16;;;;;;;30.00;15.30;;;;;;;7.24;47.91;100830.16;108098;1254;70580;-67
2024/01/23 09:20:44;;;;;;;24.80;12.30;;;;;;;7.08;48.21;100835.59;108065;1254;73253;-66
2024/01/23 09:23:11;;;;;;;22.20;12.50;;;;;;;7.04;48.25;100831.26;108052;1254;61125;-66
2024/01/23 09:25:39;;;;;;;19.40;10.40;;;;;;;6.55;49.23;100839.44;108297;1253;60364;-65
2024/01/23 09:28:08;;;;;;;24.30;10.10;;;;;;;6.79;48.97;100831.53;108167;1254;73912;-68
2024/01/23 09:30:36;;;;;;;20.20;10.60;;;;;;;6.81;49.02;100840.59;108216;1254;67728;-67
2024/01/23 09:33:03;;;;;;;25.80;14.30;;;;;;;6.72;49.19;100834.55;108090;1254;72904;-67
2024/01/23 09:35:32;;;;;;;30.20;13.50;;;;;;;6.86;48.91;100840.54;108115;1254;60312;-66
2024/01/23 09:37:59;;;;;;;25.20;13.90;;;;;;;6.72;49.42;100834.23;108151;1253;60421;-66
2024/01/23 09:40:27;;;;;;;20.30;11.30;;;;;;;6.50;49.62;100840.53;108115;1254;72735;-67
2024/01/23 09:42:56;;;;;;;30.60;15.50;;;;;;;6.87;49.20;100838.09;108138;1254;70450;-67
2024/01/23 09:45:31;;;;;;;30.80;17.80;;;;;;;6.78;49.29;100833.81;108245;1254;74331;-67
2024/01/23 09:47:58;;;;;;;28.00;14.50;;;;;;;7.10;48.63;100821.08;108150;1254;60996;-67
2024/01/23 09:50:27;;;;;;;33.60;16.60;;;;;;;6.69;49.55;100822.91;108091;1255;61487;-66
2024/01/23 09:52:55;;;;;;;30.60;13.70;;;;;;;7.00;48.87;100813.16;108106;1253;75937;-66
2024/01/23 09:55:23;;;;;;;36.70;18.50;;;;;;;6.96;48.99;100814.94;108123;1257;69241;-67
2024/01/23 09:57:50;;;;;;;25.60;12.00;;;;;;;7.02;49.00;100808.59;108152;1254;72786;-66
2024/01/23 10:00:18;;;;;;;22.50;11.70;;;;;;;6.56;49.99;100811.17;108181;1251;62140;-66
2024/01/23 10:02:48;;;;;;;34.60;15.70;;;;;;;6.65;50.10;100810.56;108177;1253;60373;-66
2024/01/23 10:05:16;;;;;;;26.90;12.20;;;;;;;6.92;49.52;100814.11;108162;1254;76017;-66
2024/01/23 10:07:44;;;;;;;35.70;17.80;;;;;;;6.86;49.58;100819.77;108175;1257;69655;-66
2024/01/23 10:10:17;;;;;;;40.80;21.20;;;;;;;6.67;50.03;100816.66;108164;1257;74914;-68
2024/01/23 10:12:47;;;;;;;30.70;15.00;;;;;;;6.57;50.09;100813.41;108258;1253;61256;-67
2024/01/23 10:15:20;;;;;;;29.90;13.80;;;;;;;6.52;50.31;100810.70;108068;1251;60829;-67
2024/01/23 10:17:48;;;;;;;33.50;16.80;;;;;;;6.58;50.70;100806.95;108044;1254;73939;-68
2024/01/23 10:20:17;;;;;;;37.40;20.90;;;;;;;6.82;49.95;100795.90;108082;1254;70476;-67
2024/01/23 10:22:45;;;;;;;28.90;11.60;;;;;;;6.91;49.71;100802.08;108026;1254;73195;-68
2024/01/23 10:25:20;;;;;;;35.30;18.10;;;;;;;6.63;50.37;100794.52;108036;1254;61301;-67
2024/01/23 10:27:52;;;;;;;28.70;13.40;;;;;;;6.81;49.80;100794.52;108130;1253;60277;-69
2024/01/23 10:30:20;;;;;;;41.70;22.00;;;;;;;6.73;50.33;100788.32;108088;1252;73647;-67
2024/01/23 10:32:48;;;;;;;35.60;17.90;;;;;;;6.80;50.28;100792.25;108169;1254;72459;-66
2024/01/23 10:35:16;;;;;;;30.70;15.00;;;;;;;6.69;50.22;100796.38;108048;1254;73908;-66
2024/01/23 10:37:44;;;;;;;37.00;16.50;;;;;;;6.68;50.29;100798.84;108110;1254;62045;-67
2024/01/23 10:40:13;;;;;;;28.00;12.60;;;;;;;7.00;49.62;100795.52;107948;1252;61452;-66
2024/01/23 10:42:41;;;;;;;43.10;21.80;;;;;;;7.17;49.46;100789.55;108162;1254;74120;-67
2024/01/23 10:45:10;;;;;;;33.10;17.70;;;;;;;7.16;49.15;100794.62;108025;1259;68830;-67
2024/01/23 10:47:39;;;;;;;33.60;16.30;;;;;;;6.90;49.70;100787.61;108195;1253;73867;-67
2024/01/23 10:50:07;;;;;;;39.30;18.60;;;;;;;6.97;49.47;100789.61;108163;1253;61928;-67
2024/01/23 10:52:39;;;;;;;36.20;18.50;;;;;;;6.84;49.87;100793.95;108214;1254;60230;-67
2024/01/23 10:55:07;;;;;;;34.50;18.10;;;;;;;7.21;49.38;100797.54;108086;1254;74016;-67
2024/01/23 10:57:38;;;;;;;36.20;17.70;;;;;;;7.22;49.21;100795.60;108178;1253;70148;-67
2024/01/23 11:00:10;;;;;;;29.90;12.60;;;;;;;7.18;49.05;100791.11;108083;1254;74171;-67
2024/01/23 11:02:42;;;;;;;44.90;22.40;;;;;;;7.02;49.56;100793.05;108186;1254;60820;-67
2024/01/23 11:05:11;;;;;;;42.90;21.30;;;;;;;7.13;49.36;100793.11;108131;1251;62494;-67
2024/01/23 11:07:58;;;;;;;32.20;14.60;;;;;;;7.24;49.10;100795.23;108082;1253;76025;-67
2024/01/23 11:10:33;;;;;;;36.20;20.10;;;;;;;6.71;50.05;100798.27;108202;1254;68877;-67
2024/01/23 11:13:20;;;;;;;36.60;20.60;;;;;;;7.07;49.30;100794.39;108140;1254;73070;-67
2024/01/23 11:15:48;;;;;;;34.60;17.90;;;;;;;7.10;49.19;100794.71;108079;1253;61430;-67